Tiempo atmosférico en la estación meteorológica de Monforte De Lemos, Lugo (291 m.)



Fecha
DESCASC
Temp. máxima en grados centígrados (hora)
DESCASC
Temp. mínima en grados centígrados (hora)
DESCASC
Temp. media en grados centígrados
DESCASC
Racha de viento máxima en m/sg (hora)
DESCASC
Velocidad máxima media en intervalos de 10 minutos(hora)
DESCASC
Precipitaciones diarias en mm
DESCASC
Precipitaciones de 00:00 a 06:00 en mm
DESCASC
Precipitaciones de 06:00 a 12:00 en mm
DESCASC
Precipitaciones de 12:00 a 18:00 en mm
DESCASC
Precipitaciones de 18:00 a 24:00 en mm
DESCASC
25-04-2019 9.9 (18:00) 5.7 (02:00) 7.8 12.22 (15:50) 4.44 (13:00) 15.2 2.8 3.8 7 1.6
24-04-2019 14.2 (16:30) 5.6 (03:30) 9.9 14.17 (17:10) 6.67 (16:20) 6.6 0.4 3.2 1.2 1.8
23-04-2019 11.5 (17:40) 5.7 (08:40) 8.6 10.83 (12:40) 4.44 (12:40) 5.6 3.8 0.2 1.2 0.4
22-04-2019 21.5 (14:40) 3.6 (00:00) 12.5 10.28 (20:10) 3.89 (20:50) 1.6 0 0 0 1.6
21-04-2019 23.7 (15:40) 4.2 (00:00) 14 10.28 (16:10) 4.72 (16:00) 0 0 0 0 0
20-04-2019 26.6 (16:00) 5.7 (00:00) 16.2 13.33 (20:20) 6.11 (17:30) 0 0 0 0 0
19-04-2019 22.2 (15:20) 9.4 (00:00) 15.8 7.5 (19:00) 3.33 (23:30) 0.4 0.4 0 0 0
18-04-2019 19.4 (15:00) 8.7 (00:00) 14 7.22 (18:40) 3.33 (17:40) 1.2 1.2 0 0 0
17-04-2019 17.9 (13:20) 8.3 (00:00) 13.1 8.33 (11:00) 3.61 (13:20) 5.3 0 0 0 5.3
16-04-2019 22 (16:50) 2 (00:00) 12 5.56 (18:20) 2.78 (18:20) 0 0 0 0 0
15-04-2019 17.3 (07:30) 7.8 (00:00) 12.5 11.39 (12:00) 5 (17:30) 13.4 0 9.6 3.8 0
14-04-2019 21.4 (17:20) 13.1 (00:00) 17.3 5 (15:00) 2.5 (17:30) 0 0 0 0 0
13-04-2019 22.6 (15:20) 6.5 (00:00) 14.6 8.33 (18:00) 2.5 (18:10) 0 0 0 0 0
12-04-2019 21.2 (16:40) 0.8 (00:00) 11 3.89 (20:40) 1.67 (17:50) 0 0 0 0 0
11-04-2019 18.3 (16:10) 1.6 (00:00) 9.9 6.67 (19:40) 3.33 (16:40) 0 0 0 0 0
10-04-2019 16.3 (17:00) 4.1 (00:00) 10.2 7.78 (13:30) 4.17 (16:30) 3 0.2 2 0.8 0
09-04-2019 13.7 (15:30) 6.5 (00:00) 10.1 11.11 (16:30) 5 (14:50) 11.4 3.8 3.2 1.6 2.8
08-04-2019 15.4 (16:30) 4.5 (00:00) 9.9 10.28 (13:50) 3.61 (17:50) 7 4 0.4 0.6 2
07-04-2019 11.8 (14:20) 2.6 (00:00) 7.2 6.39 (15:10) 2.78 (14:10) 13.4 0.2 0 3 10.2
06-04-2019 9.2 (18:40) 4.4 (00:00) 6.8 10 (19:20) 4.17 (01:30) 16.2 4.2 6.2 3.2 2.6
05-04-2019 10.4 (14:20) 3.6 (00:00) 7 8.61 (12:50) 4.44 (14:20) 2.8 1.8 0 0.4 0.6
04-04-2019 9.8 (14:10) 0.8 (00:00) 5.3 9.17 (13:10) 3.89 (13:10) 5.4 0.4 0 0.6 4.4
03-04-2019 13.7 (15:40) 3.4 (00:00) 8.5 11.67 (14:40) 5.28 (19:00) 0.6 0 0 0.6 0
02-04-2019 19.3 (16:20) 0.7 (00:00) 10 7.5 (20:00) 3.61 (18:40) 0 0 0 0 0
01-04-2019 22.8 (16:10) 1 (00:00) 11.9 6.67 (20:20) 3.33 (19:20) 0 0 0 0 0
31-03-2019 23.6 (15:20) 1.7 (00:00) 12.7 8.61 (16:20) 4.17 (16:20) 0.2 0 0 0.2 0
30-03-2019 23.7 (15:20) 2.7 (00:00) 13.2 5.83 (19:00) 2.5 (19:10) 0.4 0 0 0 0.4
29-03-2019 24.6 (15:40) 0.1 (00:00) 12.4 6.39 (19:10) 2.78 (19:10) 0 0 0 0 0
28-03-2019 24.9 (16:10) -0.8 (-00:0) 12 6.94 (18:00) 3.61 (18:10) 0 0 0 0 0
27-03-2019 24.8 (15:20) -1.9 (-00:0) 11.4 8.06 (16:30) 3.89 (16:40) 0 0 0 0 0

Gráficas

Temp. máximas Temp. mínimas Temp. medias Precipitaciones Rachas de viento máximas Velocidades máximas media en intervalos de 10 minutos

Datos horarios

Fecha y hora oficial Temperatura (ºC) Velocidad del viento (km/h) Dirección del viento Racha (km/h) Dirección de racha Precipitación (mm) Presión (hPa) Tendencia (hPa) Humedad (%)
2019-04-25 23:00:00 8.9 5 Sudoeste 14 Sudoeste 0 -- -- 93
2019-04-25 22:00:00 8.8 5 Sudoeste 15 Sudoeste 0 -- -- 93
2019-04-25 21:00:00 8.6 5 Sudoeste 32 Sudoeste 1 -- -- 92
2019-04-25 20:00:00 9.1 13 Sudoeste 31 Sudoeste 0 -- -- 85
2019-04-25 19:00:00 9.2 11 Sudoeste 33 Sudoeste 0.4 -- -- 82
2019-04-25 18:00:00 9.9 14 Sudoeste 32 Sudoeste 0 -- -- 82
2019-04-25 17:00:00 8 9 Sudoeste 23 Sudoeste 1.6 -- -- 88
2019-04-25 16:00:00 7.2 10 Oeste 44 Noroeste 2.8 -- -- 86
2019-04-25 15:00:00 9.4 7 Sudoeste 34 Sudoeste 0.2 -- -- 81
2019-04-25 14:00:00 8.3 6 Sur 35 Sudoeste 2 -- -- 85
2019-04-25 13:00:00 8.4 16 Sudoeste 38 Sur 0.4 -- -- 83
2019-04-25 12:00:00 9.2 5 Sur 27 Sur 0.2 -- -- 89
2019-04-25 11:00:00 7.8 4 Sudoeste 22 Sudoeste 0.8 -- -- 85
2019-04-25 10:00:00 7.1 5 Sudoeste 19 Sur 0.8 -- -- 88
2019-04-25 09:00:00 6.2 0 Calma 16 Sudoeste 0.6 -- -- 93
2019-04-25 08:00:00 6 11 Sudoeste 27 Sur 0.8 -- -- 88
2019-04-25 07:00:00 6.3 4 Sur 12 Sudoeste 0.6 -- -- 91
2019-04-25 06:00:00 6.4 8 Sudoeste 23 Sudoeste 0.6 -- -- 89
2019-04-25 05:00:00 6.7 7 Sudoeste 23 Sudoeste 1 -- -- 88
2019-04-25 04:00:00 6.5 0 Calma 8 Sudoeste 0.4 -- -- 95
2019-04-25 03:00:00 6.4 0 Calma 11 Sudoeste 0 -- -- 94
2019-04-25 02:00:00 5.7 0 Calma 10 Sudeste 0 -- -- 91
2019-04-25 01:00:00 6.5 3 Sur 14 Sur 0.8 -- -- 90
2019-04-25 00:00:00 6.4 0 Calma 6 Sudeste 0 -- -- 94
2019-04-24 23:00:00 6.6 0 Calma 17 Sur 0.2 -- -- 89
2019-04-24 22:00:00 8.4 8 Oeste 18 Sudoeste 1.2 -- -- 86
2019-04-24 21:00:00 9.3 5 Sudoeste 26 Sur 0 -- -- 84
2019-04-24 20:00:00 9.6 8 Sudoeste 38 Sudoeste 0.4 -- -- 86
2019-04-24 19:00:00 10.8 13 Sudoeste 27 Sudoeste 0 -- -- 77
2019-04-24 18:00:00 11.2 11 Sudoeste 51 Sudoeste 0.4 -- -- 81
2019-04-24 17:00:00 12.4 24 Sudoeste 44 Sudoeste 0 -- -- 66
2019-04-24 16:00:00 13.6 14 Oeste 42 Sudoeste 0 -- -- 63
2019-04-24 15:00:00 11.8 10 Sudoeste 44 Sudoeste 0 -- -- 72
2019-04-24 14:00:00 11.1 21 Sudoeste 45 Sudoeste 0.2 -- -- 78
2019-04-24 13:00:00 11.1 6 Oeste 17 Noroeste 0.6 -- -- 87
2019-04-24 12:00:00 8.8 0 Calma 6 Nordeste 1 -- -- 95
2019-04-24 11:00:00 7.8 0 Calma 5 Nordeste 0.6 -- -- 93
2019-04-24 10:00:00 6.8 2 Nordeste 7 Este 0.2 -- -- 94
2019-04-24 09:00:00 6.1 2 Este 10 Nordeste 0.4 -- -- 93
2019-04-24 08:00:00 6.1 2 Este 8 Este 0.4 -- -- 93
2019-04-24 07:00:00 6.1 0 Calma 4 Nordeste 0.6 -- -- 93
2019-04-24 06:00:00 6 0 Calma 5 Este 0 -- -- 92
2019-04-24 05:00:00 6.1 0 Calma 4 Sudeste 0.2 -- -- 93
2019-04-24 04:00:00 5.9 0 Calma 6 Sudeste 0 -- -- 89
2019-04-24 03:00:00 5.7 0 Calma 4 Sudoeste 0 -- -- 90
2019-04-24 02:00:00 6.3 0 Calma 9 Sur 0.2 -- -- 86
2019-04-24 01:00:00 6.7 0 Calma 7 Sudoeste 0 -- -- 89
2019-04-24 00:00:00 7 0 Calma 6 Sudoeste 0 -- -- 88
2019-04-23 23:00:00 7.6 0 Calma 12 Sudoeste 0 -- -- 86
2019-04-23 22:00:00 7.7 2 Sudoeste 19 Sudoeste 0.4 -- -- 84
2019-04-23 21:00:00 9.7 3 Sudoeste 18 Sudoeste 0 -- -- 75
2019-04-23 20:00:00 10.3 7 Sudoeste 19 Sudoeste 0 -- -- 70
2019-04-23 19:00:00 9.3 3 Sur 12 Sudoeste 0 -- -- 75
2019-04-23 18:00:00 9.3 4 Oeste 21 Oeste 0.6 -- -- 78
2019-04-23 17:00:00 11.4 10 Sudoeste 21 Sudoeste 0 -- -- 67
2019-04-23 16:00:00 10.5 6 Sudoeste 15 Sudoeste 0 -- -- 73
2019-04-23 15:00:00 8.7 4 Sudoeste 13 Sur 0 -- -- 83
2019-04-23 14:00:00 6.7 8 Sudoeste 25 Sudoeste 0.6 -- -- 86
2019-04-23 13:00:00 7.7 13 Sudoeste 39 Sudoeste 0 -- -- 83
2019-04-23 12:00:00 10.8 13 Sudoeste 31 Sudoeste 0 -- -- 68
2019-04-23 11:00:00 9.9 5 Sudoeste 9 Sudoeste 0 -- -- 73
2019-04-23 10:00:00 8.4 2 Sudoeste 9 Sur 0 -- -- 81
2019-04-23 09:00:00 5.9 0 Calma 4 Nordeste 0 -- -- 94
2019-04-23 08:00:00 6.2 0 Calma 6 Sudeste 0.2 -- -- 90
2019-04-23 07:00:00 7.3 0 Calma 9 Oeste 0 -- -- 92
2019-04-23 06:00:00 7.5 6 Sudoeste 12 Sudoeste 0 -- -- 89
2019-04-23 05:00:00 8 0 Calma 6 Sur 0.2 -- -- 90
2019-04-23 04:00:00 8.3 0 Calma 4 Sudeste 0.8 -- -- 92
2019-04-23 03:00:00 8.5 0 Calma 4 Este 0.2 -- -- 91
2019-04-23 02:00:00 8.7 2 Sudoeste 6 Sudoeste 0.6 -- -- 90
2019-04-23 01:00:00 9 4 Sudoeste 15 Sudoeste 2 -- -- 89
2019-04-23 00:00:00 11 0 Calma 4 Nordeste 0.6 -- -- 87
2019-04-22 23:00:00 11.6 0 Calma 21 Sudoeste 1 -- -- 83
2019-04-22 22:00:00 12.6 10 Sudoeste 29 Oeste 0 -- -- 68
2019-04-22 21:00:00 14.2 10 Sudoeste 37 Sudoeste 0 -- -- 62
2019-04-22 20:00:00 16.1 11 Sudoeste 28 Sudoeste 0 -- -- 51
2019-04-22 19:00:00 17.4 13 Sudoeste 29 Sudoeste 0 -- -- 52
2019-04-22 18:00:00 17.8 6 Sudoeste 27 Sudoeste 0 -- -- 54
2019-04-22 17:00:00 18.5 8 Oeste 28 Sudoeste 0 -- -- 53
2019-04-22 16:00:00 19.8 13 Sudoeste 26 Sudoeste 0 -- -- 49
2019-04-22 15:00:00 20.7 8 Sudoeste 24 Sudoeste 0 -- -- 52
2019-04-22 14:00:00 20.7 7 Oeste 17 Sudoeste 0 -- -- 54
2019-04-22 13:00:00 19.2 3 Sudoeste 9 Sudoeste 0 -- -- 56
2019-04-22 12:00:00 16.4 0 Calma 6 Sudeste 0 -- -- 69
2019-04-22 11:00:00 12.1 3 Sudeste 7 Sudoeste 0 -- -- 78
2019-04-22 10:00:00 7.1 0 Calma 4 Nordeste 0 -- -- 92
2019-04-22 09:00:00 4.3 0 Calma -- -- 0 -- -- 95
2019-04-22 08:00:00 3.8 0 Calma 2 Norte 0 -- -- 91
2019-04-22 07:00:00 4.4 0 Calma 3 Norte 0 -- -- 90
2019-04-22 06:00:00 5.1 0 Calma 3 Norte 0 -- -- 90
2019-04-22 05:00:00 5.9 0 Calma 3 Norte 0 -- -- 88
2019-04-22 04:00:00 6.8 0 Calma 3 Norte 0 -- -- 87
2019-04-22 03:00:00 7.8 2 Norte 4 Norte 0 -- -- 85
2019-04-22 02:00:00 9.2 0 Calma 4 Norte 0 -- -- 82
2019-04-22 01:00:00 10.5 0 Calma 4 Nordeste 0 -- -- 80
2019-04-22 00:00:00 11.8 0 Calma 7 Sudeste 0 -- -- 77
2019-04-21 23:00:00 13.4 0 Calma 5 Norte 0 -- -- 67
2019-04-21 22:00:00 15.9 3 Norte 19 Norte 0 -- -- 61
2019-04-21 21:00:00 17.9 7 Norte 24 Norte 0 -- -- 51
2019-04-21 20:00:00 19.7 10 Norte 30 Norte 0 -- -- 47
2019-04-21 19:00:00 20.7 15 Norte 31 Norte 0 -- -- 41
2019-04-21 18:00:00 20.9 14 Norte 33 Noroeste 0 -- -- 42
2019-04-21 17:00:00 22.4 15 Norte 37 Nordeste 0 -- -- 39
2019-04-21 16:00:00 23.6 17 Norte 36 Norte 0 -- -- 34
2019-04-21 15:00:00 22.6 13 Norte 32 Norte 0 -- -- 38
2019-04-21 14:00:00 22.1 12 Norte 31 Norte 0 -- -- 44
2019-04-21 13:00:00 19.6 3 Sudoeste 9 Sudoeste 0 -- -- 54
2019-04-21 12:00:00 16.7 2 Oeste 7 Oeste 0 -- -- 59
2019-04-21 11:00:00 12.8 2 Oeste 5 Sudoeste 0 -- -- 67
2019-04-21 10:00:00 7.6 0 Calma 4 Noroeste 0 -- -- 90
2019-04-21 09:00:00 4.7 0 Calma -- -- 0 -- -- 94
2019-04-21 08:00:00 4.3 0 Calma -- -- 0 -- -- 89
2019-04-21 07:00:00 5 0 Calma -- -- 0 -- -- 87
2019-04-21 06:00:00 5.9 0 Calma 4 Norte 0 -- -- 86
2019-04-21 05:00:00 7.2 0 Calma 3 Sudoeste 0 -- -- 85
2019-04-21 04:00:00 8.6 0 Calma 3 Sudoeste 0 -- -- 81
2019-04-21 03:00:00 10.2 0 Calma 8 Sudoeste 0 -- -- 75
2019-04-21 02:00:00 11.8 0 Calma 9 Nordeste 0 -- -- 70
2019-04-21 01:00:00 13.9 2 Nordeste 19 Norte 0 -- -- 63
2019-04-21 00:00:00 15.3 10 Norte 20 Norte 0 -- -- 59
2019-04-20 23:00:00 16.2 8 Norte 25 Nordeste 0 -- -- 58
2019-04-20 22:00:00 17.7 5 Nordeste 27 Nordeste 0 -- -- 56
2019-04-20 21:00:00 20.3 12 Norte 48 Norte 0 -- -- 46
2019-04-20 20:00:00 22.2 19 Norte 43 Nordeste 0 -- -- 36
2019-04-20 19:00:00 23.4 22 Norte 46 Norte 0 -- -- 32
2019-04-20 18:00:00 24.2 20 Norte 47 Nordeste 0 -- -- 33
2019-04-20 17:00:00 26.1 18 Norte 41 Norte 0 -- -- 32
2019-04-20 16:00:00 26.6 13 Norte 27 Norte 0 -- -- 33
2019-04-20 15:00:00 25.5 10 Norte 24 Norte 0 -- -- 39
2019-04-20 14:00:00 23.8 9 Norte 20 Norte 0 -- -- 47
2019-04-20 13:00:00 20.9 6 Norte 15 Norte 0 -- -- 55
2019-04-20 12:00:00 16.7 2 Oeste 8 Noroeste 0 -- -- 75
2019-04-20 11:00:00 13.2 3 Noroeste 5 Noroeste 0 -- -- 81
2019-04-20 10:00:00 8.8 0 Calma 4 Noroeste 0 -- -- 96
2019-04-20 09:00:00 6.5 0 Calma 4 Noroeste 0 -- -- 97
2019-04-20 08:00:00 5.8 0 Calma 4 Noroeste 0 -- -- 93
2019-04-20 07:00:00 6.3 0 Calma 4 Noroeste 0 -- -- 94
2019-04-20 06:00:00 6.9 0 Calma 4 Noroeste 0 -- -- 92
2019-04-20 05:00:00 7.8 0 Calma 4 Noroeste 0 -- -- 91
2019-04-20 04:00:00 8.9 0 Calma 4 Noroeste 0 -- -- 89
2019-04-20 03:00:00 9.7 0 Calma 4 Norte 0 -- -- 90
2019-04-20 02:00:00 11.2 0 Calma 6 Norte 0 -- -- 87
2019-04-20 01:00:00 12.4 0 Calma 6 Nordeste 0 -- -- 83
2019-04-20 00:00:00 13.9 3 Norte 24 Norte 0 -- -- 81
2019-04-19 23:00:00 14.1 5 Norte 16 Norte 0 -- -- 82
2019-04-19 22:00:00 15.5 3 Noroeste 18 Norte 0 -- -- 77
2019-04-19 21:00:00 17.1 5 Norte 17 Nordeste 0 -- -- 71
2019-04-19 20:00:00 18.3 5 Norte 23 Nordeste 0 -- -- 68
2019-04-19 19:00:00 19 10 Norte 27 Norte 0 -- -- 64
2019-04-19 18:00:00 20.3 6 Este 23 Este 0 -- -- 53
2019-04-19 17:00:00 21 7 Este 17 Sudeste 0 -- -- 52
2019-04-19 16:00:00 21.1 5 Nordeste 25 Este 0 -- -- 51
2019-04-19 15:00:00 21.9 8 Este 23 Este 0 -- -- 49
2019-04-19 14:00:00 20.1 5 Este 22 Este 0 -- -- 57
2019-04-19 13:00:00 18.5 6 Sudeste 18 Sudeste 0 -- -- 58
2019-04-19 12:00:00 17 4 Oeste 10 Este 0 -- -- 68
2019-04-19 11:00:00 14 2 Nordeste 9 Noroeste 0 -- -- 81
2019-04-19 10:00:00 11.5 2 Oeste 8 Norte 0 -- -- 92
2019-04-19 09:00:00 9.9 0 Calma 9 Oeste 0 -- -- 95
2019-04-19 08:00:00 9.4 0 Calma 2 Norte 0 -- -- 94
2019-04-19 07:00:00 9.6 0 Calma 4 Oeste 0 -- -- 93
2019-04-19 06:00:00 9.9 0 Calma 4 Oeste 0 -- -- 91
2019-04-19 05:00:00 10.1 0 Calma 4 Oeste 0.4 -- -- 90
2019-04-19 04:00:00 10.2 0 Calma 6 Oeste 0 -- -- 88
2019-04-19 03:00:00 10.3 0 Calma 8 Noroeste 0 -- -- 84
2019-04-19 02:00:00 11 0 Calma 12 Noroeste 0 -- -- 82
2019-04-19 01:00:00 11.2 3 Norte 10 Norte 0 -- -- 80
2019-04-19 00:00:00 12 3 Norte 11 Nordeste 0 -- -- 76
2019-04-18 23:00:00 13.3 4 Norte 20 Norte 0 -- -- 72
2019-04-18 22:00:00 13.7 8 Norte 20 Nordeste 0 -- -- 69
2019-04-18 21:00:00 14.8 8 Norte 26 Norte 0 -- -- 70
2019-04-18 20:00:00 15.9 9 Nordeste 25 Norte 0 -- -- 67
2019-04-18 19:00:00 17.1 11 Norte 26 Norte 0 -- -- 63
2019-04-18 18:00:00 17.7 6 Nordeste 23 Norte 0 -- -- 60
2019-04-18 17:00:00 18 7 Nordeste 16 Norte 0 -- -- 54
2019-04-18 16:00:00 18.8 3 Oeste 11 Oeste 0 -- -- 52
2019-04-18 15:00:00 19.4 3 Oeste 8 Sudoeste 0 -- -- 51
2019-04-18 14:00:00 16.9 4 Norte 10 Norte 0 -- -- 58
2019-04-18 13:00:00 16.2 2 Norte 11 Noroeste 0 -- -- 68
2019-04-18 12:00:00 14.8 3 Oeste 9 Oeste 0 -- -- 86
2019-04-18 11:00:00 12.1 0 Calma 0 Calma 0 -- -- 92
2019-04-18 10:00:00 10.5 0 Calma 0 Calma 0 -- -- 97
2019-04-18 09:00:00 9 0 Calma 0 Calma 0 -- -- 97
2019-04-18 08:00:00 8.8 0 Calma -- -- 0 -- -- 95
2019-04-18 07:00:00 9.1 0 Calma 0 Calma 0 -- -- 95
2019-04-18 06:00:00 9.4 0 Calma 0 Calma 0.2 -- -- 95
2019-04-18 05:00:00 10.1 0 Calma -- -- 0 -- -- 94
2019-04-18 04:00:00 10.4 0 Calma -- -- 0 -- -- 95
2019-04-18 03:00:00 10.6 0 Calma -- -- 0 -- -- 95
2019-04-18 02:00:00 10.9 0 Calma -- -- 0.6 -- -- 94
2019-04-18 01:00:00 11 0 Calma -- -- 0.4 -- -- 94
2019-04-18 00:00:00 11.3 0 Calma 2 Sudoeste 0.4 -- -- 93
2019-04-17 23:00:00 11.4 0 Calma 3 Sudoeste 0.2 -- -- 93
2019-04-17 22:00:00 11.8 0 Calma 7 Oeste 1 -- -- 91
2019-04-17 21:00:00 12.5 0 Calma 4 Oeste 0.2 -- -- 91
2019-04-17 20:00:00 13 0 Calma 7 Sudoeste -- -- -- 91
2019-04-17 19:00:00 13 3 Sudoeste 25 Sudoeste 0.6 -- -- 88
2019-04-17 18:00:00 14.7 3 Oeste 11 Sudoeste 0 -- -- 82
2019-04-17 17:00:00 15.6 0 Calma 18 Sudeste 0 -- -- 74
2019-04-17 16:00:00 15.6 0 Calma 9 Sudoeste 0 -- -- 75
2019-04-17 15:00:00 15.6 6 Sudoeste 15 Sudoeste 0 -- -- 65
2019-04-17 14:00:00 17 4 Sudoeste 28 Sur 0 -- -- 58
2019-04-17 13:00:00 17.5 7 Sur 24 Sudeste 0 -- -- 53
2019-04-17 12:00:00 16.8 7 Sur 29 Sudoeste 0 -- -- 54
2019-04-17 11:00:00 15.9 9 Sudeste 30 Sur 0 -- -- 57
2019-04-17 10:00:00 14.2 4 Sur 18 Sur 0 -- -- 65
2019-04-17 09:00:00 10 0 Calma 28 Sudoeste 0 -- -- 93
2019-04-17 08:00:00 8.6 0 Calma 4 Oeste 0 -- -- 92
2019-04-17 07:00:00 8.5 0 Calma 8 Sudoeste 0 -- -- 92
2019-04-17 06:00:00 8.4 0 Calma 5 Oeste 0 -- -- 91
2019-04-17 05:00:00 8.4 3 Oeste 5 Sudoeste 0 -- -- 91
2019-04-17 04:00:00 8.5 0 Calma 4 Oeste 0 -- -- 91
2019-04-17 03:00:00 8.4 0 Calma 4 Oeste 0 -- -- 90
2019-04-17 02:00:00 8.6 0 Calma 2 Oeste 0 -- -- 88
2019-04-17 01:00:00 9.6 0 Calma 4 Oeste 0 -- -- 85
2019-04-17 00:00:00 11.3 0 Calma 3 Oeste 0 -- -- 82
2019-04-16 23:00:00 12.5 0 Calma 3 Oeste 0 -- -- 80
2019-04-16 22:00:00 14.3 0 Calma 3 Oeste 0 -- -- 74
2019-04-16 21:00:00 16.6 2 Oeste 5 Oeste 0 -- -- 65
2019-04-16 20:00:00 18.7 4 Sudoeste 17 Sudoeste 0 -- -- 50
2019-04-16 19:00:00 19.3 7 Sudoeste 20 Sudoeste 0 -- -- 43
2019-04-16 18:00:00 20.4 6 Sudoeste 13 Sudoeste 0 -- -- 38
2019-04-16 17:00:00 22 4 Oeste 12 Noroeste 0 -- -- 41
2019-04-16 16:00:00 21 3 Norte 10 Noroeste 0 -- -- 45
2019-04-16 15:00:00 19.8 4 Noroeste 9 Noroeste 0 -- -- 49
2019-04-16 14:00:00 17.4 2 Oeste 7 Oeste 0 -- -- 55
2019-04-16 13:00:00 14.9 3 Oeste 6 Oeste 0 -- -- 66
2019-04-16 12:00:00 10.6 3 Sudoeste 5 Sudoeste 0 -- -- 79
2019-04-16 11:00:00 6.3 3 Sudoeste 5 Oeste 0 -- -- 98
2019-04-16 10:00:00 3.8 0 Calma 4 Oeste 0 -- -- 98
2019-04-16 09:00:00 2.6 0 Calma 3 Oeste 0 -- -- 97
2019-04-16 08:00:00 2.1 0 Calma 3 Oeste 0 -- -- 95
2019-04-16 07:00:00 2.1 0 Calma 0 Calma 0 -- -- 94
2019-04-16 06:00:00 2.6 0 Calma 4 Oeste 0 -- -- 94
2019-04-16 05:00:00 3.2 0 Calma 3 Oeste 0 -- -- 93
2019-04-16 04:00:00 3.8 0 Calma 3 Oeste 0 -- -- 92
2019-04-16 03:00:00 4.6 0 Calma 3 Oeste 0 -- -- 92
2019-04-16 02:00:00 5.4 0 Calma 3 Oeste 0 -- -- 90
2019-04-16 01:00:00 6.5 0 Calma 3 Oeste 0 -- -- 89
2019-04-16 00:00:00 7.8 0 Calma 3 Oeste 0 -- -- 86
2019-04-15 23:00:00 9.5 0 Calma 7 Oeste 0 -- -- 80
2019-04-15 22:00:00 11 4 Sudoeste 10 Sudoeste 0 -- -- 73
2019-04-15 21:00:00 12.7 0 Calma 20 Sudoeste 0 -- -- 72
2019-04-15 20:00:00 14.1 10 Sudoeste 29 Sudoeste 0 -- -- 62
2019-04-15 19:00:00 15.2 10 Oeste 32 Sudoeste 0 -- -- 60
2019-04-15 18:00:00 15.4 12 Sudoeste 37 Sudoeste 0 -- -- 66
2019-04-15 17:00:00 14.7 15 Sudoeste 30 Sudoeste 2 -- -- 81
2019-04-15 16:00:00 14.8 3 Sudeste 18 Sudoeste 0 -- -- 81
2019-04-15 15:00:00 13.3 3 Sur 17 Sudoeste 0.2 -- -- 85
2019-04-15 14:00:00 12 8 Sudoeste 20 Sudoeste 1 -- -- 89
2019-04-15 13:00:00 12.5 8 Sudoeste 29 Sudoeste 0.6 -- -- 88
2019-04-15 12:00:00 12.7 18 Sudoeste 41 Sudoeste 1.2 -- -- 87
2019-04-15 11:00:00 16.4 9 Sudoeste 36 Oeste 0 -- -- 72
2019-04-15 10:00:00 15 7 Sur 23 Sudoeste 0 -- -- 78
2019-04-15 09:00:00 14.5 11 Sudoeste 25 Oeste 7.2 -- -- 90
2019-04-15 08:00:00 16.1 6 Oeste 27 Sudoeste 1.2 -- -- 86
2019-04-15 07:00:00 14 2 Sudoeste 6 Sudoeste 0 -- -- 91
2019-04-15 06:00:00 13.9 0 Calma 8 Noroeste 0 -- -- 91
2019-04-15 05:00:00 13.8 0 Calma 4 Norte 0 -- -- 92
2019-04-15 04:00:00 13.9 0 Calma 9 Norte 0 -- -- 91
2019-04-15 03:00:00 13.7 4 Oeste 8 Noroeste 0 -- -- 92
2019-04-15 02:00:00 14.2 0 Calma 4 Sudoeste 0 -- -- 88
2019-04-15 01:00:00 15 2 Sudoeste 5 Sudoeste 0 -- -- 87
2019-04-15 00:00:00 16 0 Calma 4 Sudoeste 0 -- -- 83
2019-04-14 23:00:00 17.1 0 Calma 6 Sudoeste 0 -- -- 82
2019-04-14 22:00:00 17.8 0 Calma 8 Sudoeste 0 -- -- 77
2019-04-14 21:00:00 19.2 0 Calma 10 Sur 0 -- -- 73
2019-04-14 20:00:00 20.4 4 Sudoeste 13 Sudoeste 0 -- -- 62
2019-04-14 19:00:00 20.8 6 Sudoeste 16 Sudoeste 0 -- -- 65
2019-04-14 18:00:00 20.7 6 Sudoeste 18 Sudoeste 0 -- -- 64
2019-04-14 17:00:00 20.9 7 Sudoeste 17 Sudoeste 0 -- -- 64
2019-04-14 16:00:00 21 4 Sur 9 Sur 0 -- -- 66
2019-04-14 15:00:00 19.5 6 Sudoeste 18 Sudoeste 0 -- -- 68
2019-04-14 14:00:00 19.7 4 Sudoeste 10 Sudoeste 0 -- -- 70
2019-04-14 13:00:00 18.5 0 Calma 0 Calma 0 -- -- 76
2019-04-14 12:00:00 16.8 0 Calma 0 Calma 0 -- -- 79
2019-04-14 11:00:00 15.6 0 Calma 0 Calma 0 -- -- 87
2019-04-14 10:00:00 14.5 0 Calma 0 Calma 0 -- -- 90
2019-04-14 09:00:00 13.4 0 Calma -- -- 0 -- -- 92
2019-04-14 08:00:00 13.2 0 Calma 0 Calma 0 -- -- 91
2019-04-14 07:00:00 13.3 0 Calma 0 Calma 0 -- -- 91
2019-04-14 06:00:00 13.4 0 Calma -- -- 0 -- -- 91
2019-04-14 05:00:00 13.5 0 Calma 2 Este 0 -- -- 90
2019-04-14 04:00:00 13.7 0 Calma 3 Este 0 -- -- 88
2019-04-14 03:00:00 13.9 0 Calma 2 Este 0 -- -- 89
2019-04-14 02:00:00 14.1 0 Calma 4 Este 0 -- -- 88
2019-04-14 01:00:00 14.1 0 Calma 3 Sudeste 0 -- -- 88
2019-04-14 00:00:00 14.4 0 Calma 3 Norte 0 -- -- 86
2019-04-13 23:00:00 14.8 0 Calma 4 Este 0 -- -- 85
2019-04-13 22:00:00 15.4 0 Calma 4 Noroeste 0 -- -- 82
2019-04-13 21:00:00 15.9 2 Oeste 11 Sudoeste 0 -- -- 78
2019-04-13 20:00:00 16.6 5 Oeste 19 Sudoeste 0 -- -- 75
2019-04-13 19:00:00 18 6 Oeste 25 Sudoeste 0 -- -- 67
2019-04-13 18:00:00 19.9 6 Oeste 30 Sudoeste 0 -- -- 53
2019-04-13 17:00:00 21 5 Oeste 18 Noroeste 0 -- -- 50
2019-04-13 16:00:00 22 4 Oeste 12 Sudoeste 0 -- -- 46
2019-04-13 15:00:00 22.2 5 Norte 13 Noroeste 0 -- -- 43
2019-04-13 14:00:00 19.7 4 Norte 9 Norte 0 -- -- 50
2019-04-13 13:00:00 17.9 4 Noroeste 7 Noroeste 0 -- -- 55
2019-04-13 12:00:00 16.2 3 Noroeste 9 Sudoeste 0 -- -- 62
2019-04-13 11:00:00 12.5 0 Calma 5 Sudoeste 0 -- -- 75
2019-04-13 10:00:00 8.4 0 Calma 4 Noroeste 0 -- -- 89
2019-04-13 09:00:00 7 0 Calma 3 Norte 0 -- -- 93
2019-04-13 08:00:00 6.5 0 Calma 2 Noroeste 0 -- -- 91
2019-04-13 07:00:00 6.9 0 Calma 3 Norte 0 -- -- 88
2019-04-13 06:00:00 7.1 0 Calma 2 Norte 0 -- -- 88
2019-04-13 05:00:00 7.4 0 Calma 2 Norte 0 -- -- 88
2019-04-13 04:00:00 7.7 0 Calma 3 Norte 0 -- -- 85
2019-04-13 03:00:00 8.2 0 Calma 4 Nordeste 0 -- -- 84
2019-04-13 02:00:00 8.6 0 Calma 3 Norte 0 -- -- 83
2019-04-13 01:00:00 9.2 0 Calma 4 Este 0 -- -- 81
2019-04-13 00:00:00 10 0 Calma 5 Norte 0 -- -- 77
2019-04-12 23:00:00 11.9 3 Norte 9 Noroeste 0 -- -- 68
2019-04-12 22:00:00 13.4 0 Calma 13 Noroeste 0 -- -- 60
2019-04-12 21:00:00 15.6 5 Noroeste 14 Noroeste 0 -- -- 56
2019-04-12 20:00:00 17.7 0 Calma 9 Noroeste 0 -- -- 46
2019-04-12 19:00:00 19 2 Sudoeste 10 Sudoeste 0 -- -- 35
2019-04-12 18:00:00 19.5 6 Oeste 13 Noroeste 0 -- -- 36
2019-04-12 17:00:00 21.1 4 Oeste 11 Sur 0 -- -- 37
2019-04-12 16:00:00 20.7 3 Norte 10 Sudoeste 0 -- -- 40
2019-04-12 15:00:00 18.9 4 Sur 7 Oeste 0 -- -- 50
2019-04-12 14:00:00 16.2 3 Norte 6 Noroeste 0 -- -- 62
2019-04-12 13:00:00 11.6 2 Sudeste 7 Sur 0 -- -- 79
2019-04-12 12:00:00 6.9 0 Calma 5 Sudoeste 0 -- -- 93
2019-04-12 11:00:00 4.7 2 Oeste 6 Noroeste 0 -- -- 96
2019-04-12 10:00:00 3.7 0 Calma 5 Norte 0 -- -- 98
2019-04-12 09:00:00 2.7 0 Calma 3 Nordeste 0 -- -- 98
2019-04-12 08:00:00 1.7 0 Calma 3 Noroeste 0 -- -- 96
2019-04-12 07:00:00 0.9 0 Calma 3 Nordeste 0 -- -- 94
2019-04-12 06:00:00 1.2 0 Calma 2 Norte 0 -- -- 91
2019-04-12 05:00:00 1.8 0 Calma 2 Norte 0 -- -- 91
2019-04-12 04:00:00 2.6 0 Calma 2 Norte 0 -- -- 90
2019-04-12 03:00:00 3.5 0 Calma 3 Norte 0 -- -- 88
2019-04-12 02:00:00 4.7 0 Calma 2 Norte 0 -- -- 87
2019-04-12 01:00:00 5.9 0 Calma 3 Noroeste 0 -- -- 85
2019-04-12 00:00:00 7.2 0 Calma 6 Sur 0 -- -- 84
2019-04-11 23:00:00 8.5 0 Calma 3 Sudoeste 0 -- -- 81
2019-04-11 22:00:00 10.5 0 Calma 5 Norte 0 -- -- 75
2019-04-11 21:00:00 12.6 0 Calma 12 Norte 0 -- -- 64
2019-04-11 20:00:00 14.3 7 Norte 24 Nordeste 0 -- -- 56
2019-04-11 19:00:00 14.9 7 Norte 21 Norte 0 -- -- 56
2019-04-11 18:00:00 16.2 9 Noroeste 20 Noroeste 0 -- -- 50
2019-04-11 17:00:00 16.5 8 Norte 23 Norte 0 -- -- 51
2019-04-11 16:00:00 18 6 Noroeste 17 Noroeste 0 -- -- 43
2019-04-11 15:00:00 16.6 4 Oeste 13 Sudoeste 0 -- -- 55
2019-04-11 14:00:00 13.5 3 Sudoeste 11 Sudoeste 0 -- -- 68
2019-04-11 13:00:00 10.8 4 Sur 12 Sur 0 -- -- 73
2019-04-11 12:00:00 7.8 0 Calma 6 Noroeste 0 -- -- 85
2019-04-11 11:00:00 6.2 0 Calma 3 Noroeste 0 -- -- 96
2019-04-11 10:00:00 4.4 0 Calma 4 Noroeste 0 -- -- 99
2019-04-11 09:00:00 3.3 0 Calma 4 Noroeste 0 -- -- 98
2019-04-11 08:00:00 3 0 Calma 4 Noroeste 0 -- -- 98
2019-04-11 07:00:00 2.3 0 Calma 2 Norte 0 -- -- 96
2019-04-11 06:00:00 1.6 0 Calma 2 Norte 0 -- -- 93
2019-04-11 05:00:00 2.4 0 Calma 2 Norte 0 -- -- 91
2019-04-11 04:00:00 3.3 0 Calma 4 Norte 0 -- -- 90
2019-04-11 03:00:00 4.5 0 Calma 5 Norte 0 -- -- 91
2019-04-11 02:00:00 5.9 0 Calma 4 Norte 0 -- -- 87
2019-04-11 01:00:00 7.6 0 Calma 2 Noroeste 0 -- -- 85
2019-04-11 00:00:00 9.5 0 Calma 9 Norte 0 -- -- 82
2019-04-10 23:00:00 10.3 2 Norte 8 Norte 0 -- -- 80
2019-04-10 22:00:00 11 2 Noroeste 11 Noroeste 0 -- -- 80
2019-04-10 21:00:00 12.2 7 Noroeste 17 Norte 0 -- -- 72
2019-04-10 20:00:00 13.1 8 Noroeste 19 Noroeste 0 -- -- 72
2019-04-10 19:00:00 13.5 11 Noroeste 24 Noroeste 0 -- -- 72
2019-04-10 18:00:00 14 8 Norte 26 Norte 0.2 -- -- 68
2019-04-10 17:00:00 16.3 10 Noroeste 28 Noroeste 0 -- -- 65
2019-04-10 16:00:00 15.1 9 Norte 21 Noroeste 0 -- -- 71
2019-04-10 15:00:00 13 7 Noroeste 20 Norte 0.6 -- -- 80
2019-04-10 14:00:00 13.1 13 Noroeste 28 Noroeste 0 -- -- 79
2019-04-10 13:00:00 11.6 10 Noroeste 22 Noroeste 0 -- -- 88
2019-04-10 12:00:00 11.5 3 Oeste 15 Sudoeste 0 -- -- 90
2019-04-10 11:00:00 8.4 4 Sudoeste 9 Sudoeste 0.6 -- -- 97
2019-04-10 10:00:00 7.1 0 Calma 5 Sudoeste 1 -- -- 99
2019-04-10 09:00:00 5.9 0 Calma 4 Sur 0.4 -- -- 98
2019-04-10 08:00:00 5.1 0 Calma 3 Sur 0 -- -- 98
2019-04-10 07:00:00 4.3 0 Calma 4 Sur 0 -- -- 97
2019-04-10 06:00:00 4.2 0 Calma 4 Sudoeste 0 -- -- 94
2019-04-10 05:00:00 5 0 Calma 8 Sudoeste 0 -- -- 96
2019-04-10 04:00:00 5.3 2 Sudoeste 4 Sudoeste 0 -- -- 96
2019-04-10 03:00:00 5.1 0 Calma 7 Sudoeste 0.2 -- -- 95
2019-04-10 02:00:00 5.7 0 Calma 4 Sudoeste 0 -- -- 92
2019-04-10 01:00:00 6.9 0 Calma 8 Sudoeste 0 -- -- 90
2019-04-10 00:00:00 8 4 Sudoeste 10 Sudoeste 0 -- -- 93
2019-04-09 23:00:00 8.2 3 Sudoeste 9 Sur 0.2 -- -- 92
2019-04-09 22:00:00 8.5 4 Sudoeste 21 Sudoeste 0.4 -- -- 90
2019-04-09 21:00:00 9 5 Sudoeste 31 Sudoeste 1.6 -- -- 90
2019-04-09 20:00:00 10 8 Sudoeste 23 Sudoeste 0.2 -- -- 84
2019-04-09 19:00:00 10.6 5 Sudoeste 13 Sudoeste 0.4 -- -- 82
2019-04-09 18:00:00 10.2 3 Oeste 19 Sudoeste 1.4 -- -- 88
2019-04-09 17:00:00 10.6 10 Oeste 40 Sudoeste 0 -- -- 78
2019-04-09 16:00:00 13 8 Oeste 32 Sudoeste 0 -- -- 69
2019-04-09 15:00:00 12.3 14 Sudoeste 35 Sudoeste 0 -- -- 73
2019-04-09 14:00:00 11.5 12 Sudoeste 25 Sudoeste 0.2 -- -- 76
2019-04-09 13:00:00 10.4 13 Sudoeste 27 Sudoeste 0 -- -- 79
2019-04-09 12:00:00 10.1 7 Sudoeste 15 Sudoeste 0 -- -- 81
2019-04-09 11:00:00 8.9 4 Sudoeste 8 Sudoeste 0 -- -- 89
2019-04-09 10:00:00 7.3 0 Calma 3 Nordeste 0 -- -- 95
2019-04-09 09:00:00 6.6 0 Calma 4 Norte 0 -- -- 94
2019-04-09 08:00:00 6.6 3 Norte 6 Este 2.4 -- -- 95
2019-04-09 07:00:00 6.6 0 Calma 9 Sur 0.8 -- -- 93
2019-04-09 06:00:00 6.6 5 Sudeste 16 Sudeste 2 -- -- 90
2019-04-09 05:00:00 6.9 0 Calma 16 Sudeste 0.2 -- -- 89
2019-04-09 04:00:00 7 3 Sur 12 Sur 0.6 -- -- 88
2019-04-09 03:00:00 7.6 4 Sur 15 Sur 0.2 -- -- 87
2019-04-09 02:00:00 7.4 2 Sur 13 Sur 0 -- -- 89
2019-04-09 01:00:00 7.8 0 Calma 15 Sur 0.8 -- -- 90
2019-04-09 00:00:00 8.6 3 Oeste 20 Sudoeste 1.8 -- -- 87
2019-04-08 23:00:00 9.3 4 Sudoeste 16 Sur 0 -- -- 78
2019-04-08 22:00:00 9.2 4 Sur 21 Sur 0 -- -- 75
2019-04-08 21:00:00 9.9 0 Calma 12 Sudoeste 0 -- -- 83
2019-04-08 20:00:00 10.5 8 Sudoeste 27 Oeste 0.2 -- -- 77
2019-04-08 19:00:00 13.3 8 Oeste 33 Sudoeste 0 -- -- 61
2019-04-08 18:00:00 14 10 Sudoeste 25 Oeste 0 -- -- 55
2019-04-08 17:00:00 14.8 9 Sudoeste 29 Sudoeste 0 -- -- 55
2019-04-08 16:00:00 13.4 7 Sudoeste 34 Sudoeste 0.6 -- -- 72
2019-04-08 15:00:00 13.9 5 Oeste 27 Sudoeste 0 -- -- 64
2019-04-08 14:00:00 13.5 5 Oeste 37 Sudoeste 0 -- -- 68
2019-04-08 13:00:00 12.4 6 Oeste 28 Sudoeste 0 -- -- 69
2019-04-08 12:00:00 12.7 11 Sudoeste 23 Sudoeste 0 -- -- 70
2019-04-08 11:00:00 10.7 7 Sudoeste 19 Sur 0 -- -- 81
2019-04-08 10:00:00 7.1 2 Oeste 5 Oeste 0.2 -- -- 99
2019-04-08 09:00:00 5.4 0 Calma 7 Oeste 0.2 -- -- 98
2019-04-08 08:00:00 4.8 0 Calma 4 Oeste 0 -- -- 94
2019-04-08 07:00:00 6.3 0 Calma 4 Oeste 0 -- -- 96
2019-04-08 06:00:00 6.7 0 Calma 4 Oeste 1 -- -- 96
2019-04-08 05:00:00 7.6 2 Oeste 4 Oeste 0.4 -- -- 97
2019-04-08 04:00:00 7.8 0 Calma 6 Oeste 2.6 -- -- 98
2019-04-08 03:00:00 7.4 0 Calma 4 Oeste 0 -- -- 95
2019-04-08 02:00:00 8.4 0 Calma 6 Oeste 0 -- -- 96
2019-04-08 01:00:00 8.5 0 Calma 5 Oeste 0 -- -- 97
2019-04-08 00:00:00 8.4 2 Oeste 8 Oeste 1 -- -- 96
2019-04-07 23:00:00 8.3 0 Calma 5 Oeste 1.8 -- -- 95
2019-04-07 22:00:00 8.4 0 Calma 8 Oeste 3.8 -- -- 94
2019-04-07 21:00:00 8.7 0 Calma 7 Sudeste 3 -- -- 94
2019-04-07 20:00:00 8.9 2 Sudeste 7 Sudeste 0.2 -- -- 92
2019-04-07 19:00:00 9.2 3 Sudeste 10 Sudeste 0.4 -- -- 90
2019-04-07 18:00:00 9.7 0 Calma 5 Sudeste 1 -- -- 89
2019-04-07 17:00:00 9.7 0 Calma 7 Sudeste 0.6 -- -- 85
2019-04-07 16:00:00 9.1 0 Calma 23 Sur 1.4 -- -- 86
2019-04-07 15:00:00 10.8 7 Sudoeste 20 Sur 0 -- -- 71
2019-04-07 14:00:00 11.7 9 Sur 21 Sur 0 -- -- 63
2019-04-07 13:00:00 10 3 Sudoeste 8 Sudoeste 0 -- -- 82
2019-04-07 12:00:00 8.2 4 Sudoeste 8 Sudoeste 0 -- -- 89
2019-04-07 11:00:00 5.4 0 Calma 4 Sudoeste 0 -- -- 99
2019-04-07 10:00:00 3.7 0 Calma 5 Sudoeste 0 -- -- 99
2019-04-07 09:00:00 3.3 0 Calma 5 Sudoeste 0 -- -- 98
2019-04-07 08:00:00 3.2 0 Calma 5 Sudoeste 0 -- -- 97
2019-04-07 07:00:00 3.4 0 Calma 4 Sudoeste 0 -- -- 97
2019-04-07 06:00:00 3 0 Calma 2 Sudoeste 0 -- -- 97
2019-04-07 05:00:00 2.6 0 Calma 3 Sudoeste 0 -- -- 95
2019-04-07 04:00:00 3.2 0 Calma 2 Sudoeste 0 -- -- 94
2019-04-07 03:00:00 4.1 0 Calma 2 Sudoeste 0 -- -- 93
2019-04-07 02:00:00 4.6 0 Calma 2 Sudoeste 0.2 -- -- 95
2019-04-07 01:00:00 4.7 0 Calma 3 Sudoeste 0 -- -- 94
2019-04-07 00:00:00 5 0 Calma 9 Sudoeste 0 -- -- 92
2019-04-06 23:00:00 5.3 3 Sudoeste 15 Sudoeste 0.2 -- -- 91
2019-04-06 22:00:00 6.3 4 Sudoeste 10 Sur 0.8 -- -- 92
2019-04-06 21:00:00 6.9 0 Calma 5 Oeste 1 -- -- 91
2019-04-06 20:00:00 7.4 4 Sudoeste 36 Oeste 0.2 -- -- 84
2019-04-06 19:00:00 9 5 Sudoeste 18 Sudoeste 0.4 -- -- 83
2019-04-06 18:00:00 8.6 3 Sur 10 Sur 0.2 -- -- 84
2019-04-06 17:00:00 6.4 2 Oeste 30 Noroeste 1.6 -- -- 88
2019-04-06 16:00:00 7.9 8 Oeste 27 Sudoeste 0 -- -- 86
2019-04-06 15:00:00 7.4 5 Oeste 23 Sudoeste 0.6 -- -- 86
2019-04-06 14:00:00 8.3 5 Sudoeste 24 Sudoeste 0.2 -- -- 86
2019-04-06 13:00:00 7.7 9 Sudoeste 26 Sudoeste 0.6 -- -- 88
2019-04-06 12:00:00 7.3 11 Sudoeste 25 Sudoeste 0.4 -- -- 88
2019-04-06 11:00:00 6.3 4 Sudoeste 12 Sudoeste 0 -- -- 91
2019-04-06 10:00:00 5.3 5 Sur 11 Sur 0.8 -- -- 90
2019-04-06 09:00:00 4.6 0 Calma 11 Sudeste 2.8 -- -- 93
2019-04-06 08:00:00 4.7 0 Calma 7 Sur 2 -- -- 92
2019-04-06 07:00:00 4.6 0 Calma 11 Sur 0.2 -- -- 92
2019-04-06 06:00:00 4.4 0 Calma 5 Sudeste 0.4 -- -- 94
2019-04-06 05:00:00 4.5 0 Calma 7 Sudeste 0.2 -- -- 92
2019-04-06 04:00:00 4.7 4 Sur 20 Sudoeste 1.4 -- -- 91
2019-04-06 03:00:00 4.7 3 Noroeste 5 Nordeste 0.6 -- -- 93
2019-04-06 02:00:00 4.7 0 Calma 30 Sudoeste 1.2 -- -- 90
2019-04-06 01:00:00 5.8 2 Noroeste 10 Sudoeste 0.4 -- -- 91
2019-04-06 00:00:00 5.8 0 Calma 3 Noroeste 0 -- -- 89
2019-04-05 23:00:00 6.1 0 Calma 12 Sudoeste 0 -- -- 86
2019-04-05 22:00:00 6.3 2 Sudoeste 10 Sudoeste 0 -- -- 87
2019-04-05 21:00:00 7.2 6 Sudoeste 13 Sur 0.2 -- -- 84
2019-04-05 20:00:00 7.8 2 Sudoeste 9 Sudoeste 0.2 -- -- 84
2019-04-05 19:00:00 7.9 4 Oeste 20 Sudoeste 0.2 -- -- 82
2019-04-05 18:00:00 8.8 11 Sudoeste 31 Sudoeste 0 -- -- 71
2019-04-05 17:00:00 9 14 Sudoeste 29 Sudoeste 0 -- -- 72
2019-04-05 16:00:00 9.2 12 Oeste 31 Sudoeste 0 -- -- 69
2019-04-05 15:00:00 9.4 10 Sudoeste 30 Sudoeste 0.2 -- -- 79
2019-04-05 14:00:00 10.2 8 Sudoeste 23 Sudoeste 0 -- -- 61
2019-04-05 13:00:00 8.4 10 Oeste 31 Sudoeste 0.2 -- -- 75
2019-04-05 12:00:00 9.6 13 Sur 27 Sur 0 -- -- 60
2019-04-05 11:00:00 7.3 5 Sudoeste 14 Oeste 0 -- -- 78
2019-04-05 10:00:00 4.7 0 Calma 4 Oeste 0 -- -- 96
2019-04-05 09:00:00 3.7 0 Calma 3 Sur 0 -- -- 94
2019-04-05 08:00:00 3.9 0 Calma 4 Sudoeste 0 -- -- 95
2019-04-05 07:00:00 4.4 0 Calma 11 Sur 0 -- -- 93
2019-04-05 06:00:00 4.5 0 Calma 6 Sudoeste 0.2 -- -- 92
2019-04-05 05:00:00 5.1 4 Sudoeste 9 Sudoeste 0.2 -- -- 93
2019-04-05 04:00:00 5.4 0 Calma 0 Calma 0.8 -- -- 94
2019-04-05 03:00:00 5.2 0 Calma 5 Este 0 -- -- 93
2019-04-05 02:00:00 5.7 0 Calma 4 Sudoeste 0.4 -- -- 93
2019-04-05 01:00:00 6.1 0 Calma 3 Norte 0.2 -- -- 93
2019-04-05 00:00:00 6.3 0 Calma 5 Noroeste 1 -- -- 92
2019-04-04 23:00:00 6.6 0 Calma 7 Noroeste 1.2 -- -- 91
2019-04-04 22:00:00 7.2 0 Calma 6 Noroeste 1.6 -- -- 88
2019-04-04 21:00:00 8 2 Oeste 17 Sur 0.4 -- -- 81
2019-04-04 20:00:00 8.4 6 Sur 17 Sur 0 -- -- 75
2019-04-04 19:00:00 7.8 6 Sur 26 Sur 0.2 -- -- 79
2019-04-04 18:00:00 7.8 6 Sur 28 Sur 0.4 -- -- 80
2019-04-04 17:00:00 8.4 12 Sur 31 Sudoeste 0.2 -- -- 72
2019-04-04 16:00:00 9.2 11 Sudoeste 29 Sudoeste 0 -- -- 69
2019-04-04 15:00:00 9.8 12 Sudoeste 27 Sudoeste 0 -- -- 62
2019-04-04 14:00:00 9.6 6 Sur 33 Sudoeste 0 -- -- 63
2019-04-04 13:00:00 8.9 13 Sudoeste 25 Sur 0 -- -- 66
2019-04-04 12:00:00 8.3 3 Sudoeste 9 Sur 0 -- -- 74
2019-04-04 11:00:00 6.1 0 Calma 5 Norte 0 -- -- 85
2019-04-04 10:00:00 2.8 2 Norte 5 Noroeste 0 -- -- 93
2019-04-04 09:00:00 1.3 2 Sudoeste 5 Sudoeste 0 -- -- 93
2019-04-04 08:00:00 1 0 Calma 4 Noroeste 0 -- -- 92
2019-04-04 07:00:00 1 0 Calma 4 Noroeste 0 -- -- 93
2019-04-04 06:00:00 0.9 0 Calma 2 Noroeste 0 -- -- 93
2019-04-04 05:00:00 1.3 0 Calma 4 Noroeste 0 -- -- 89
2019-04-04 04:00:00 1.8 0 Calma 4 Oeste 0 -- -- 90
2019-04-04 03:00:00 1.9 0 Calma 5 Sudoeste 0 -- -- 89
2019-04-04 02:00:00 3.4 0 Calma 4 Sur 0.4 -- -- 90
2019-04-04 01:00:00 3 0 Calma 3 Sudoeste 0 -- -- 86
2019-04-04 00:00:00 3.4 0 Calma 2 Oeste 0 -- -- 80
2019-04-03 23:00:00 4.9 0 Calma 9 Noroeste 0 -- -- 74
2019-04-03 22:00:00 6.5 4 Noroeste 29 Norte 0 -- -- 69
2019-04-03 21:00:00 7.9 8 Noroeste 20 Noroeste 0 -- -- 64
2019-04-03 20:00:00 9.1 12 Noroeste 36 Noroeste 0 -- -- 58
2019-04-03 19:00:00 11 19 Noroeste 35 Noroeste 0 -- -- 54
2019-04-03 18:00:00 11.4 13 Norte 33 Norte 0 -- -- 48
2019-04-03 17:00:00 12.9 5 Norte 34 Noroeste 0 -- -- 53
2019-04-03 16:00:00 11.3 13 Norte 31 Noroeste 0 -- -- 57
2019-04-03 15:00:00 11.5 16 Noroeste 42 Noroeste 0.2 -- -- 60
2019-04-03 14:00:00 9.9 13 Noroeste 29 Norte 0.4 -- -- 77
2019-04-03 13:00:00 8.4 15 Noroeste 33 Noroeste 0 -- -- 75
2019-04-03 12:00:00 10.3 10 Noroeste 22 Oeste 0 -- -- 66
2019-04-03 11:00:00 8.5 9 Noroeste 17 Noroeste 0 -- -- 76
2019-04-03 10:00:00 6.4 3 Noroeste 10 Noroeste 0 -- -- 88
2019-04-03 09:00:00 5 0 Calma 2 Oeste 0 -- -- 90
2019-04-03 08:00:00 5.7 0 Calma 4 Sudoeste 0 -- -- 89
2019-04-03 07:00:00 5.8 0 Calma 5 Oeste 0 -- -- 86
2019-04-03 06:00:00 5.9 2 Sudoeste 5 Sudoeste 0 -- -- 86
2019-04-03 05:00:00 5.8 0 Calma 4 Noroeste 0 -- -- 86
2019-04-03 04:00:00 5.8 0 Calma 5 Noroeste 0 -- -- 82
2019-04-03 03:00:00 7.4 2 Oeste 8 Noroeste 0 -- -- 78
2019-04-03 02:00:00 7.9 4 Noroeste 13 Noroeste 0 -- -- 75
2019-04-03 01:00:00 8.4 4 Norte 18 Noroeste 0 -- -- 73
2019-04-03 00:00:00 9 6 Noroeste 15 Noroeste 0 -- -- 71
2019-04-02 23:00:00 9.9 6 Noroeste 17 Noroeste 0 -- -- 69
2019-04-02 22:00:00 10.9 7 Norte 22 Noroeste 0 -- -- 63
2019-04-02 21:00:00 12.3 6 Noroeste 26 Norte 0 -- -- 60
2019-04-02 20:00:00 14 11 Norte 27 Norte 0 -- -- 56
2019-04-02 19:00:00 15.9 12 Norte 24 Noroeste 0 -- -- 56
2019-04-02 18:00:00 17.5 9 Norte 22 Noroeste 0 -- -- 52
2019-04-02 17:00:00 17.9 3 Noroeste 15 Norte 0 -- -- 49
2019-04-02 16:00:00 18.5 5 Oeste 17 Noroeste 0 -- -- 47
2019-04-02 15:00:00 17.6 3 Sudoeste 14 Sudoeste 0 -- -- 56
2019-04-02 14:00:00 15 3 Noroeste 14 Sudoeste 0 -- -- 62
2019-04-02 13:00:00 13.7 4 Noroeste 10 Sudoeste 0 -- -- 69
2019-04-02 12:00:00 11.1 4 Sudoeste 10 Sudoeste 0 -- -- 79
2019-04-02 11:00:00 7.1 2 Noroeste 5 Noroeste 0 -- -- 88
2019-04-02 10:00:00 3.8 0 Calma 3 Norte 0 -- -- 92
2019-04-02 09:00:00 2.6 0 Calma 8 Sudoeste 0 -- -- 92
2019-04-02 08:00:00 1.1 0 Calma 4 Noroeste 0 -- -- 94
2019-04-02 07:00:00 1 0 Calma 4 Noroeste 0 -- -- 90
2019-04-02 06:00:00 1.3 0 Calma 3 Noroeste 0 -- -- 88
2019-04-02 05:00:00 2.2 0 Calma 4 Noroeste 0 -- -- 88
2019-04-02 04:00:00 3 0 Calma 3 Norte 0 -- -- 86
2019-04-02 03:00:00 4.1 0 Calma 4 Norte 0 -- -- 84
2019-04-02 02:00:00 5.4 0 Calma 3 Noroeste 0 -- -- 80
2019-04-02 01:00:00 6.9 0 Calma 3 Norte 0 -- -- 77
2019-04-02 00:00:00 8.9 0 Calma 3 Norte 0 -- -- 72
2019-04-01 23:00:00 10.7 0 Calma 5 Oeste 0 -- -- 68
2019-04-01 22:00:00 12.8 0 Calma 13 Noroeste 0 -- -- 60
2019-04-01 21:00:00 15.3 6 Noroeste 24 Norte 0 -- -- 49
2019-04-01 20:00:00 17.8 10 Norte 24 Nordeste 0 -- -- 41
2019-04-01 19:00:00 19.4 11 Noroeste 22 Norte 0 -- -- 37
2019-04-01 18:00:00 20.8 4 Noroeste 21 Noroeste 0 -- -- 33
2019-04-01 17:00:00 22.6 9 Noroeste 23 Noroeste 0 -- -- 31
2019-04-01 16:00:00 22.5 8 Noroeste 18 Noroeste 0 -- -- 38
2019-04-01 15:00:00 21 4 Nordeste 11 Nordeste 0 -- -- 45
2019-04-01 14:00:00 19.8 3 Sur 9 Sur 0 -- -- 42
2019-04-01 13:00:00 17.1 2 Oeste 8 Sudoeste 0 -- -- 56
2019-04-01 12:00:00 13.2 2 Sudoeste 5 Sur 0 -- -- 68
2019-04-01 11:00:00 8.8 2 Sur 4 Oeste 0 -- -- 85
2019-04-01 10:00:00 3.1 0 Calma 3 Norte 0 -- -- 96
2019-04-01 09:00:00 1.3 0 Calma 2 Noroeste 0 -- -- 94
2019-04-01 08:00:00 1.4 0 Calma 2 Noroeste 0 -- -- 90
2019-04-01 07:00:00 2 0 Calma 3 Norte 0 -- -- 90
2019-04-01 06:00:00 2.7 0 Calma 3 Norte 0 -- -- 89
2019-04-01 05:00:00 3.4 0 Calma 3 Noroeste 0 -- -- 87
2019-04-01 04:00:00 4.4 0 Calma 3 Noroeste 0 -- -- 85
2019-04-01 03:00:00 5.7 0 Calma 2 Norte 0 -- -- 84
2019-04-01 02:00:00 7.2 0 Calma 4 Noroeste 0 -- -- 81
2019-04-01 01:00:00 8.5 0 Calma 4 Noroeste 0 -- -- 79
2019-04-01 00:00:00 10 0 Calma 9 Noroeste 0 -- -- 74
2019-03-31 23:00:00 11.5 2 Oeste 6 Noroeste 0 -- -- 70
2019-03-31 22:00:00 12.3 0 Calma 12 Norte 0 -- -- 68
2019-03-31 21:00:00 14.7 5 Norte 19 Norte 0 -- -- 57
2019-03-31 20:00:00 16.2 4 Oeste 18 Noroeste 0 -- -- 51
2019-03-31 19:00:00 17.5 2 Oeste 12 Noroeste 0 -- -- 56
2019-03-31 18:00:00 18.3 7 Noroeste 15 Sudoeste 0 -- -- 46
2019-03-31 17:00:00 18.8 2 Norte 31 Noroeste 0.2 -- -- 39
2019-03-31 16:00:00 19.8 12 Norte 28 Norte 0 -- -- 36
2019-03-31 15:00:00 23.1 6 Nordeste 11 Nordeste 0 -- -- 31
2019-03-31 14:00:00 19.9 3 Sudoeste 7 Oeste 0 -- -- 46
2019-03-31 13:00:00 16.3 2 Norte 6 Sudeste 0 -- -- 59
2019-03-31 12:00:00 11 2 Oeste 5 Sudoeste 0 -- -- 73
2019-03-31 11:00:00 7.1 0 Calma 4 Sudoeste 0 -- -- 86
2019-03-31 10:00:00 3.1 0 Calma 2 Norte 0 -- -- 95
2019-03-31 09:00:00 1.7 0 Calma 2 Norte 0 -- -- 91
2019-03-31 08:00:00 2 0 Calma 2 Norte 0 -- -- 89
2019-03-31 07:00:00 2.8 0 Calma 3 Norte 0 -- -- 88
2019-03-31 06:00:00 3.8 0 Calma 2 Norte 0 -- -- 87
2019-03-31 05:00:00 4.8 0 Calma 2 Norte 0 -- -- 85
2019-03-31 03:00:00 7.5 0 Calma 3 Norte 0 -- -- 81
2019-03-31 01:00:00 9.2 0 Calma 5 Noroeste 0 -- -- 77
2019-03-31 00:00:00 10.5 0 Calma 6 Nordeste 0 -- -- 76
2019-03-30 23:00:00 11.5 0 Calma 3 Norte 0 -- -- 71
2019-03-30 22:00:00 12.9 0 Calma 7 Noroeste 0 -- -- 64
2019-03-30 21:00:00 14.9 3 Oeste 12 Noroeste 0 -- -- 55
2019-03-30 20:00:00 15.9 0 Calma 17 Noroeste 0 -- -- 60
2019-03-30 19:00:00 17.5 6 Oeste 21 Noroeste 0.4 -- -- 51
2019-03-30 18:00:00 20 2 Norte 10 Sudeste 0 -- -- 44
2019-03-30 17:00:00 20.9 4 Sudeste 16 Sudeste 0 -- -- 39
2019-03-30 16:00:00 23.5 5 Sudeste 17 Sudoeste 0 -- -- 27
2019-03-30 15:00:00 23.4 5 Sur 12 Sur 0 -- -- 33
2019-03-30 14:00:00 21.8 4 Norte 8 Sur 0 -- -- 32
2019-03-30 13:00:00 21 3 Sur 7 Sudoeste 0 -- -- 32
2019-03-30 12:00:00 17.5 0 Calma 6 Sudoeste 0 -- -- 60
2019-03-30 11:00:00 13.2 2 Sudeste 5 Sur 0 -- -- 66
2019-03-30 10:00:00 9.2 0 Calma 4 Sudoeste 0 -- -- 75
2019-03-30 09:00:00 4.6 0 Calma 3 Sudoeste 0 -- -- 91
2019-03-30 08:00:00 2.8 0 Calma 2 Norte 0 -- -- 91
2019-03-30 07:00:00 3 0 Calma 2 Norte 0 -- -- 89
2019-03-30 06:00:00 3.2 0 Calma 2 Norte 0 -- -- 86
2019-03-30 05:00:00 4.3 0 Calma 2 Nordeste 0 -- -- 83
2019-03-30 04:00:00 5.6 0 Calma 3 Nordeste 0 -- -- 81
2019-03-30 03:00:00 6.9 0 Calma 2 Norte 0 -- -- 79
2019-03-30 02:00:00 7.7 0 Calma 3 Norte 0 -- -- 77
2019-03-30 01:00:00 8.1 0 Calma 3 Sudoeste 0 -- -- 77
2019-03-30 00:00:00 8.9 0 Calma 4 Norte 0 -- -- 73
2019-03-29 23:00:00 10.5 0 Calma 4 Este 0 -- -- 69
2019-03-29 22:00:00 12.5 0 Calma 8 Noroeste 0 -- -- 65
2019-03-29 21:00:00 14.3 0 Calma 13 Sudoeste 0 -- -- 55
2019-03-29 20:00:00 17.4 2 Oeste 23 Oeste 0 -- -- 45
2019-03-29 19:00:00 20.2 4 Noroeste 17 Noroeste 0 -- -- 37
2019-03-29 18:00:00 21.2 0 Calma 9 Norte 0 -- -- 38
2019-03-29 17:00:00 22.4 5 Sur 16 Sudoeste 0 -- -- 28
2019-03-29 16:00:00 24.4 5 Sudeste 14 Sudoeste 0 -- -- 27
2019-03-29 15:00:00 23.9 3 Sudoeste 10 Norte 0 -- -- 29
2019-03-29 14:00:00 22.5 0 Calma 8 Noroeste 0 -- -- 35
2019-03-29 13:00:00 19.7 2 Sudoeste 6 Sur 0 -- -- 39
2019-03-29 12:00:00 15.1 3 Sudoeste 6 Sudoeste 0 -- -- 60
2019-03-29 11:00:00 10.3 2 Sudoeste 6 Sur 0 -- -- 71
2019-03-29 10:00:00 6.3 0 Calma 4 Sur 0 -- -- 88
2019-03-29 09:00:00 2.3 0 Calma 2 Noroeste 0 -- -- 97
2019-03-29 08:00:00 0.3 0 Calma 3 Norte 0 -- -- 93
2019-03-29 07:00:00 0.3 0 Calma 2 Norte 0 -- -- 90
2019-03-29 06:00:00 1 0 Calma 2 Norte 0 -- -- 89
2019-03-29 05:00:00 1.8 0 Calma 2 Oeste 0 -- -- 89
2019-03-29 04:00:00 2.6 0 Calma 3 Norte 0 -- -- 88
2019-03-29 03:00:00 3.6 0 Calma 2 Norte 0 -- -- 86
2019-03-29 02:00:00 4.6 0 Calma 2 Norte 0 -- -- 84
2019-03-29 01:00:00 6.1 0 Calma 3 Norte 0 -- -- 81
2019-03-29 00:00:00 8 0 Calma 3 Noroeste 0 -- -- 77
2019-03-28 23:00:00 10.1 0 Calma 6 Norte 0 -- -- 74
2019-03-28 22:00:00 11.5 0 Calma 4 Noroeste 0 -- -- 71
2019-03-28 21:00:00 14.1 0 Calma 13 Noroeste 0 -- -- 62
2019-03-28 20:00:00 16.9 5 Norte 15 Norte 0 -- -- 53
2019-03-28 19:00:00 19.2 7 Norte 23 Norte 0 -- -- 47
2019-03-28 18:00:00 21 13 Norte 25 Norte 0 -- -- 39
2019-03-28 17:00:00 22.7 9 Norte 18 Noroeste 0 -- -- 33
2019-03-28 16:00:00 24.6 5 Oeste 13 Noroeste 0 -- -- 29
2019-03-28 15:00:00 23.9 3 Norte 10 Oeste 0 -- -- 40
2019-03-28 14:00:00 21 3 Sudoeste 8 Sudoeste 0 -- -- 45
2019-03-28 13:00:00 18.5 2 Norte 9 Sudeste 0 -- -- 54
2019-03-28 12:00:00 14.5 3 Sur 6 Sur 0 -- -- 62
2019-03-28 11:00:00 10.8 2 Sudeste 7 Sudeste 0 -- -- 75
2019-03-28 10:00:00 6.5 0 Calma 5 Sur 0 -- -- 79
2019-03-28 09:00:00 1.2 0 Calma 3 Noroeste 0 -- -- 96
2019-03-28 08:00:00 -0.6 0 Calma 3 Norte 0 -- -- 92
2019-03-28 07:00:00 -0.6 0 Calma 3 Norte 0 -- -- 88
2019-03-28 06:00:00 0.1 0 Calma 3 Norte 0 -- -- 90
2019-03-28 05:00:00 0.7 0 Calma 3 Norte 0 -- -- 88
2019-03-28 04:00:00 1.7 0 Calma 3 Norte 0 -- -- 87
2019-03-28 03:00:00 2.5 0 Calma 4 Norte 0 -- -- 85
2019-03-28 02:00:00 3.8 0 Calma 2 Norte 0 -- -- 83
2019-03-28 01:00:00 5.3 0 Calma 2 Norte 0 -- -- 80
2019-03-28 00:00:00 7.1 0 Calma 5 Noroeste 0 -- -- 77
2019-03-27 23:00:00 8.5 0 Calma 5 Sudoeste 0 -- -- 73
2019-03-27 22:00:00 10.3 0 Calma 7 Noroeste 0 -- -- 69
2019-03-27 21:00:00 12.9 0 Calma 11 Norte 0 -- -- 63
2019-03-27 20:00:00 15.6 7 Norte 19 Norte 0 -- -- 53
2019-03-27 19:00:00 18 5 Norte 28 Norte 0 -- -- 50
2019-03-27 18:00:00 20 13 Norte 23 Norte 0 -- -- 43
2019-03-27 17:00:00 21.5 11 Norte 29 Noroeste 0 -- -- 38
2019-03-27 16:00:00 24.1 10 Norte 28 Noroeste 0 -- -- 26
2019-03-27 15:00:00 24.6 3 Sudoeste 11 Sudoeste 0 -- -- 26
2019-03-27 14:00:00 22.2 4 Oeste 11 Sudoeste 0 -- -- 30
2019-03-27 13:00:00 19.2 2 Sur 7 Sur 0 -- -- 37
2019-03-27 12:00:00 15.2 3 Sur 7 Sudeste 0 -- -- 47
2019-03-27 11:00:00 10.6 3 Sur 8 Sudoeste 0 -- -- 61
2019-03-27 10:00:00 5.9 2 Nordeste 5 Sudeste 0 -- -- 76
2019-03-27 09:00:00 -0.2 0 Calma 6 Norte 0 -- -- 91
2019-03-27 08:00:00 -1.7 0 Calma -- -- 0 -- -- 91
2019-03-27 07:00:00 -1.6 0 Calma -- -- 0 -- -- 90
2019-03-27 06:00:00 -1.1 0 Calma 4 Noroeste 0 -- -- 90
2019-03-27 05:00:00 -0.5 0 Calma 4 Noroeste 0 -- -- 87
2019-03-27 04:00:00 0.3 0 Calma 4 Nordeste 0 -- -- 85
2019-03-27 03:00:00 1.4 0 Calma 6 Noroeste 0 -- -- 83
2019-03-27 02:00:00 2.8 0 Calma 5 Noroeste 0 -- -- 80
2019-03-27 01:00:00 5 0 Calma 8 Noroeste 0 -- -- 74
2019-03-27 00:00:00 6.5 3 Oeste 6 Sur 0 -- -- 74